sensor_id;sensor_type;location;lat;lon;timestamp;temperature;humidity
70166;SHT30;57541;47.408;18.822;2023-05-02T00:00:01;13.64;62.92
70166;SHT30;57541;47.408;18.822;2023-05-02T00:00:35;13.72;61.85
70166;SHT30;57541;47.408;18.822;2023-05-02T00:01:07;13.71;62.91
70166;SHT30;57541;47.408;18.822;2023-05-02T00:01:39;13.78;61.63
70166;SHT30;57541;47.408;18.822;2023-05-02T00:02:11;13.83;61.24
70166;SHT30;57541;47.408;18.822;2023-05-02T00:02:43;13.90;61.23
70166;SHT30;57541;47.408;18.822;2023-05-02T00:03:15;13.92;61.56
70166;SHT30;57541;47.408;18.822;2023-05-02T00:03:47;14.01;60.73
70166;SHT30;57541;47.408;18.822;2023-05-02T00:04:19;14.06;60.49
70166;SHT30;57541;47.408;18.822;2023-05-02T00:04:51;14.03;60.99
70166;SHT30;57541;47.408;18.822;2023-05-02T00:05:23;14.05;61.38
70166;SHT30;57541;47.408;18.822;2023-05-02T00:05:55;14.03;61.07
70166;SHT30;57541;47.408;18.822;2023-05-02T00:06:27;14.09;60.87
70166;SHT30;57541;47.408;18.822;2023-05-02T00:06:59;14.08;60.84
70166;SHT30;57541;47.408;18.822;2023-05-02T00:07:31;14.12;60.37
70166;SHT30;57541;47.408;18.822;2023-05-02T00:08:02;14.13;60.66
70166;SHT30;57541;47.408;18.822;2023-05-02T00:08:34;14.13;60.58
70166;SHT30;57541;47.408;18.822;2023-05-02T00:09:06;14.15;60.70
70166;SHT30;57541;47.408;18.822;2023-05-02T00:09:37;14.13;60.71
70166;SHT30;57541;47.408;18.822;2023-05-02T00:10:09;14.17;60.54
70166;SHT30;57541;47.408;18.822;2023-05-02T00:10:41;14.20;60.48
70166;SHT30;57541;47.408;18.822;2023-05-02T00:11:13;14.20;60.34
70166;SHT30;57541;47.408;18.822;2023-05-02T00:11:44;14.20;60.26
70166;SHT30;57541;47.408;18.822;2023-05-02T00:12:16;14.19;60.98
70166;SHT30;57541;47.408;18.822;2023-05-02T00:12:48;14.16;62.00
70166;SHT30;57541;47.408;18.822;2023-05-02T00:13:19;14.17;61.45
70166;SHT30;57541;47.408;18.822;2023-05-02T00:13:51;14.16;60.98
70166;SHT30;57541;47.408;18.822;2023-05-02T00:14:23;14.20;61.12
70166;SHT30;57541;47.408;18.822;2023-05-02T00:14:55;14.22;61.48
70166;SHT30;57541;47.408;18.822;2023-05-02T00:15:27;14.20;61.43
70166;SHT30;57541;47.408;18.822;2023-05-02T00:15:59;14.22;60.62
70166;SHT30;57541;47.408;18.822;2023-05-02T00:16:31;14.23;60.60
70166;SHT30;57541;47.408;18.822;2023-05-02T00:17:03;14.23;60.68
70166;SHT30;57541;47.408;18.822;2023-05-02T00:17:36;14.26;60.68
70166;SHT30;57541;47.408;18.822;2023-05-02T00:18:10;14.29;60.42
70166;SHT30;57541;47.408;18.822;2023-05-02T00:18:42;14.36;60.13
70166;SHT30;57541;47.408;18.822;2023-05-02T00:19:14;14.38;59.88
70166;SHT30;57541;47.408;18.822;2023-05-02T00:19:46;14.37;60.78
70166;SHT30;57541;47.408;18.822;2023-05-02T00:20:18;14.34;61.65
70166;SHT30;57541;47.408;18.822;2023-05-02T00:20:49;14.34;61.21
70166;SHT30;57541;47.408;18.822;2023-05-02T00:21:21;14.34;61.21
70166;SHT30;57541;47.408;18.822;2023-05-02T00:21:53;14.37;60.86
70166;SHT30;57541;47.408;18.822;2023-05-02T00:22:24;14.36;61.48
70166;SHT30;57541;47.408;18.822;2023-05-02T00:22:56;14.34;61.09
70166;SHT30;57541;47.408;18.822;2023-05-02T00:23:27;14.37;60.57
70166;SHT30;57541;47.408;18.822;2023-05-02T00:23:59;14.54;59.48
70166;SHT30;57541;47.408;18.822;2023-05-02T00:24:31;14.61;59.10
70166;SHT30;57541;47.408;18.822;2023-05-02T00:25:04;14.67;59.12
70166;SHT30;57541;47.408;18.822;2023-05-02T00:25:36;14.68;59.24
70166;SHT30;57541;47.408;18.822;2023-05-02T00:26:08;14.70;59.49
70166;SHT30;57541;47.408;18.822;2023-05-02T00:26:40;14.70;59.34
70166;SHT30;57541;47.408;18.822;2023-05-02T00:27:12;14.63;61.01
70166;SHT30;57541;47.408;18.822;2023-05-02T00:27:44;14.60;60.54
70166;SHT30;57541;47.408;18.822;2023-05-02T00:28:17;14.57;60.09
70166;SHT30;57541;47.408;18.822;2023-05-02T00:28:49;14.54;61.04
70166;SHT30;57541;47.408;18.822;2023-05-02T00:29:20;14.50;61.19
70166;SHT30;57541;47.408;18.822;2023-05-02T00:29:52;14.48;61.11
70166;SHT30;57541;47.408;18.822;2023-05-02T00:30:24;14.50;60.45
70166;SHT30;57541;47.408;18.822;2023-05-02T00:30:56;14.53;60.18
70166;SHT30;57541;47.408;18.822;2023-05-02T00:31:28;14.56;60.38
70166;SHT30;57541;47.408;18.822;2023-05-02T00:32:00;14.51;61.00
70166;SHT30;57541;47.408;18.822;2023-05-02T00:32:32;14.45;61.33
70166;SHT30;57541;47.408;18.822;2023-05-02T00:33:03;14.51;60.31
70166;SHT30;57541;47.408;18.822;2023-05-02T00:33:37;14.59;59.85
70166;SHT30;57541;47.408;18.822;2023-05-02T00:34:09;14.75;58.99
70166;SHT30;57541;47.408;18.822;2023-05-02T00:34:40;14.82;58.99
70166;SHT30;57541;47.408;18.822;2023-05-02T00:35:12;14.85;58.80
70166;SHT30;57541;47.408;18.822;2023-05-02T00:35:43;14.82;59.06
70166;SHT30;57541;47.408;18.822;2023-05-02T00:36:17;14.81;59.21
70166;SHT30;57541;47.408;18.822;2023-05-02T00:36:49;14.75;59.86
70166;SHT30;57541;47.408;18.822;2023-05-02T00:37:25;14.71;60.38
70166;SHT30;57541;47.408;18.822;2023-05-02T00:37:58;14.67;60.02
70166;SHT30;57541;47.408;18.822;2023-05-02T00:38:30;14.64;60.27
70166;SHT30;57541;47.408;18.822;2023-05-02T00:39:01;14.61;59.86
70166;SHT30;57541;47.408;18.822;2023-05-02T00:39:34;14.61;59.90
70166;SHT30;57541;47.408;18.822;2023-05-02T00:40:07;14.59;60.16
70166;SHT30;57541;47.408;18.822;2023-05-02T00:40:46;14.60;60.29
70166;SHT30;57541;47.408;18.822;2023-05-02T00:41:18;14.57;60.89
70166;SHT30;57541;47.408;18.822;2023-05-02T00:41:59;14.47;61.91
70166;SHT30;57541;47.408;18.822;2023-05-02T00:42:32;14.48;60.73
70166;SHT30;57541;47.408;18.822;2023-05-02T00:43:06;14.51;60.13
70166;SHT30;57541;47.408;18.822;2023-05-02T00:43:37;14.50;60.37
70166;SHT30;57541;47.408;18.822;2023-05-02T00:44:12;14.47;60.43
70166;SHT30;57541;47.408;18.822;2023-05-02T00:44:44;14.48;60.38
70166;SHT30;57541;47.408;18.822;2023-05-02T00:45:17;14.50;60.08
70166;SHT30;57541;47.408;18.822;2023-05-02T00:45:49;14.50;60.19
70166;SHT30;57541;47.408;18.822;2023-05-02T00:46:21;14.41;61.48
70166;SHT30;57541;47.408;18.822;2023-05-02T00:46:54;14.44;60.62
70166;SHT30;57541;47.408;18.822;2023-05-02T00:47:26;14.40;61.33
70166;SHT30;57541;47.408;18.822;2023-05-02T00:47:57;14.38;61.45
70166;SHT30;57541;47.408;18.822;2023-05-02T00:48:29;14.36;61.34
70166;SHT30;57541;47.408;18.822;2023-05-02T00:49:01;14.37;60.78
70166;SHT30;57541;47.408;18.822;2023-05-02T00:49:33;14.43;60.15
70166;SHT30;57541;47.408;18.822;2023-05-02T00:50:05;14.48;59.87
70166;SHT30;57541;47.408;18.822;2023-05-02T00:50:41;14.59;59.76
70166;SHT30;57541;47.408;18.822;2023-05-02T00:51:13;14.63;59.47
70166;SHT30;57541;47.408;18.822;2023-05-02T00:51:45;14.65;59.53
70166;SHT30;57541;47.408;18.822;2023-05-02T00:52:17;14.65;59.75
70166;SHT30;57541;47.408;18.822;2023-05-02T00:52:48;14.68;59.57
70166;SHT30;57541;47.408;18.822;2023-05-02T00:53:20;14.68;60.05
70166;SHT30;57541;47.408;18.822;2023-05-02T00:53:52;14.64;60.16
70166;SHT30;57541;47.408;18.822;2023-05-02T00:54:24;14.57;60.53
70166;SHT30;57541;47.408;18.822;2023-05-02T00:54:56;14.53;60.66
70166;SHT30;57541;47.408;18.822;2023-05-02T00:55:27;14.50;60.72
70166;SHT30;57541;47.408;18.822;2023-05-02T00:56:00;14.48;60.68
70166;SHT30;57541;47.408;18.822;2023-05-02T00:56:35;14.51;60.21
70166;SHT30;57541;47.408;18.822;2023-05-02T00:57:07;14.50;60.36
70166;SHT30;57541;47.408;18.822;2023-05-02T00:57:39;14.57;59.96
70166;SHT30;57541;47.408;18.822;2023-05-02T00:58:13;14.59;59.86
70166;SHT30;57541;47.408;18.822;2023-05-02T00:58:45;14.61;59.74
70166;SHT30;57541;47.408;18.822;2023-05-02T00:59:17;14.61;59.74
70166;SHT30;57541;47.408;18.822;2023-05-02T00:59:50;14.61;59.72
70166;SHT30;57541;47.408;18.822;2023-05-02T01:00:30;14.65;59.81
70166;SHT30;57541;47.408;18.822;2023-05-02T01:03:31;14.68;60.04
70166;SHT30;57541;47.408;18.822;2023-05-02T01:05:48;14.78;60.63
70166;SHT30;57541;47.408;18.822;2023-05-02T01:08:09;14.82;60.51
70166;SHT30;57541;47.408;18.822;2023-05-02T01:11:17;14.91;59.73
70166;SHT30;57541;47.408;18.822;2023-05-02T01:12:44;14.89;59.80
70166;SHT30;57541;47.408;18.822;2023-05-02T01:13:20;14.87;59.94
70166;SHT30;57541;47.408;18.822;2023-05-02T01:13:55;14.85;59.97
70166;SHT30;57541;47.408;18.822;2023-05-02T01:14:32;14.84;60.23
70166;SHT30;57541;47.408;18.822;2023-05-02T01:15:06;14.82;60.24
70166;SHT30;57541;47.408;18.822;2023-05-02T01:15:41;14.82;60.24
70166;SHT30;57541;47.408;18.822;2023-05-02T01:16:15;14.80;60.16
70166;SHT30;57541;47.408;18.822;2023-05-02T01:16:48;14.75;60.79
70166;SHT30;57541;47.408;18.822;2023-05-02T01:17:26;14.74;60.81
70166;SHT30;57541;47.408;18.822;2023-05-02T01:18:00;14.71;60.56
70166;SHT30;57541;47.408;18.822;2023-05-02T01:18:35;14.71;60.57
70166;SHT30;57541;47.408;18.822;2023-05-02T01:19:19;14.74;60.51
70166;SHT30;57541;47.408;18.822;2023-05-02T01:19:57;14.71;60.61
70166;SHT30;57541;47.408;18.822;2023-05-02T01:20:29;14.73;60.65
70166;SHT30;57541;47.408;18.822;2023-05-02T01:21:06;14.70;60.70
70166;SHT30;57541;47.408;18.822;2023-05-02T01:21:40;14.70;61.21
70166;SHT30;57541;47.408;18.822;2023-05-02T01:22:13;14.68;61.10
70166;SHT30;57541;47.408;18.822;2023-05-02T01:22:46;14.67;61.23
70166;SHT30;57541;47.408;18.822;2023-05-02T01:24:09;14.65;60.93
70166;SHT30;57541;47.408;18.822;2023-05-02T01:25:39;14.68;60.87
70166;SHT30;57541;47.408;18.822;2023-05-02T01:26:28;14.67;61.36
70166;SHT30;57541;47.408;18.822;2023-05-02T01:28:20;14.61;61.37
70166;SHT30;57541;47.408;18.822;2023-05-02T01:29:06;14.64;61.33
70166;SHT30;57541;47.408;18.822;2023-05-02T01:29:39;14.65;61.14
70166;SHT30;57541;47.408;18.822;2023-05-02T01:30:13;14.68;60.89
70166;SHT30;57541;47.408;18.822;2023-05-02T01:30:46;14.65;61.15
70166;SHT30;57541;47.408;18.822;2023-05-02T01:31:20;14.61;61.52
70166;SHT30;57541;47.408;18.822;2023-05-02T01:31:55;14.53;61.87
70166;SHT30;57541;47.408;18.822;2023-05-02T01:32:30;14.53;61.96
70166;SHT30;57541;47.408;18.822;2023-05-02T01:33:04;14.48;62.49
70166;SHT30;57541;47.408;18.822;2023-05-02T01:33:38;14.45;62.12
70166;SHT30;57541;47.408;18.822;2023-05-02T01:34:11;14.50;61.97
70166;SHT30;57541;47.408;18.822;2023-05-02T01:34:44;14.50;62.04
70166;SHT30;57541;47.408;18.822;2023-05-02T01:35:17;14.41;62.59
70166;SHT30;57541;47.408;18.822;2023-05-02T01:35:51;14.34;62.96
70166;SHT30;57541;47.408;18.822;2023-05-02T01:36:26;14.38;62.35
70166;SHT30;57541;47.408;18.822;2023-05-02T01:37:00;14.50;61.77
70166;SHT30;57541;47.408;18.822;2023-05-02T01:37:33;14.54;61.50
70166;SHT30;57541;47.408;18.822;2023-05-02T01:38:06;14.59;61.55
70166;SHT30;57541;47.408;18.822;2023-05-02T01:38:38;14.61;61.66
70166;SHT30;57541;47.408;18.822;2023-05-02T01:39:17;14.68;61.44
70166;SHT30;57541;47.408;18.822;2023-05-02T01:39:50;14.67;61.45
70166;SHT30;57541;47.408;18.822;2023-05-02T01:40:23;14.67;61.59
70166;SHT30;57541;47.408;18.822;2023-05-02T01:40:58;14.71;61.41
70166;SHT30;57541;47.408;18.822;2023-05-02T01:41:34;14.70;61.36
70166;SHT30;57541;47.408;18.822;2023-05-02T01:42:06;14.71;61.44
70166;SHT30;57541;47.408;18.822;2023-05-02T01:42:39;14.67;61.60
70166;SHT30;57541;47.408;18.822;2023-05-02T01:43:13;14.68;61.79
70166;SHT30;57541;47.408;18.822;2023-05-02T01:43:46;14.65;61.71
70166;SHT30;57541;47.408;18.822;2023-05-02T01:44:22;14.64;61.90
70166;SHT30;57541;47.408;18.822;2023-05-02T01:44:55;14.56;62.03
70166;SHT30;57541;47.408;18.822;2023-05-02T01:45:27;14.56;62.24
70166;SHT30;57541;47.408;18.822;2023-05-02T01:46:00;14.47;62.55
70166;SHT30;57541;47.408;18.822;2023-05-02T01:46:36;14.44;62.54
70166;SHT30;57541;47.408;18.822;2023-05-02T01:47:09;14.43;62.61
70166;SHT30;57541;47.408;18.822;2023-05-02T01:47:42;14.44;62.62
70166;SHT30;57541;47.408;18.822;2023-05-02T01:48:16;14.44;62.71
70166;SHT30;57541;47.408;18.822;2023-05-02T01:48:50;14.45;62.70
70166;SHT30;57541;47.408;18.822;2023-05-02T01:49:23;14.50;62.66
70166;SHT30;57541;47.408;18.822;2023-05-02T01:49:57;14.47;62.96
70166;SHT30;57541;47.408;18.822;2023-05-02T01:50:30;14.48;62.93
70166;SHT30;57541;47.408;18.822;2023-05-02T01:51:03;14.61;62.96
70166;SHT30;57541;47.408;18.822;2023-05-02T01:51:41;14.67;62.96
70166;SHT30;57541;47.408;18.822;2023-05-02T01:52:14;14.70;62.85
70166;SHT30;57541;47.408;18.822;2023-05-02T01:52:49;14.71;63.02
70166;SHT30;57541;47.408;18.822;2023-05-02T01:53:23;14.70;62.96
70166;SHT30;57541;47.408;18.822;2023-05-02T01:53:57;14.68;63.17
70166;SHT30;57541;47.408;18.822;2023-05-02T01:54:31;14.67;63.36
70166;SHT30;57541;47.408;18.822;2023-05-02T01:55:05;14.70;63.32
70166;SHT30;57541;47.408;18.822;2023-05-02T01:55:43;14.68;63.50
70166;SHT30;57541;47.408;18.822;2023-05-02T01:56:18;14.73;63.20
70166;SHT30;57541;47.408;18.822;2023-05-02T01:56:50;14.70;63.15
70166;SHT30;57541;47.408;18.822;2023-05-02T01:57:23;14.73;63.26
70166;SHT30;57541;47.408;18.822;2023-05-02T01:57:55;14.73;63.25
70166;SHT30;57541;47.408;18.822;2023-05-02T01:58:29;14.75;63.17
70166;SHT30;57541;47.408;18.822;2023-05-02T01:59:04;14.77;63.19
70166;SHT30;57541;47.408;18.822;2023-05-02T01:59:39;14.74;63.22
70166;SHT30;57541;47.408;18.822;2023-05-02T02:00:12;14.75;63.35
70166;SHT30;57541;47.408;18.822;2023-05-02T02:00:44;14.77;63.39
70166;SHT30;57541;47.408;18.822;2023-05-02T02:01:17;14.73;63.54
70166;SHT30;57541;47.408;18.822;2023-05-02T02:01:50;14.65;64.48
70166;SHT30;57541;47.408;18.822;2023-05-02T02:02:25;14.64;64.69
70166;SHT30;57541;47.408;18.822;2023-05-02T02:02:58;14.63;64.30
70166;SHT30;57541;47.408;18.822;2023-05-02T02:03:30;14.57;64.68
70166;SHT30;57541;47.408;18.822;2023-05-02T02:04:02;14.54;64.59
70166;SHT30;57541;47.408;18.822;2023-05-02T02:04:36;14.54;64.86
70166;SHT30;57541;47.408;18.822;2023-05-02T02:05:09;14.50;64.68
70166;SHT30;57541;47.408;18.822;2023-05-02T02:05:42;14.60;64.68
70166;SHT30;57541;47.408;18.822;2023-05-02T02:06:14;14.60;64.62
70166;SHT30;57541;47.408;18.822;2023-05-02T02:06:50;14.63;64.72
70166;SHT30;57541;47.408;18.822;2023-05-02T02:07:23;14.64;64.82
70166;SHT30;57541;47.408;18.822;2023-05-02T02:07:54;14.65;65.16
70166;SHT30;57541;47.408;18.822;2023-05-02T02:08:26;14.65;65.17
70166;SHT30;57541;47.408;18.822;2023-05-02T02:08:58;14.68;65.09
70166;SHT30;57541;47.408;18.822;2023-05-02T02:09:30;14.65;65.08
70166;SHT30;57541;47.408;18.822;2023-05-02T02:10:02;14.68;65.08
70166;SHT30;57541;47.408;18.822;2023-05-02T02:10:40;14.67;64.96
70166;SHT30;57541;47.408;18.822;2023-05-02T02:11:16;14.68;65.17
70166;SHT30;57541;47.408;18.822;2023-05-02T02:11:58;14.61;65.21
70166;SHT30;57541;47.408;18.822;2023-05-02T02:12:50;14.68;64.58
70166;SHT30;57541;47.408;18.822;2023-05-02T02:13:29;14.70;64.46
70166;SHT30;57541;47.408;18.822;2023-05-02T02:14:06;14.71;64.47
70166;SHT30;57541;47.408;18.822;2023-05-02T02:14:49;14.73;64.52
70166;SHT30;57541;47.408;18.822;2023-05-02T02:15:26;14.77;64.20
70166;SHT30;57541;47.408;18.822;2023-05-02T02:16:00;14.78;64.15
70166;SHT30;57541;47.408;18.822;2023-05-02T02:16:36;14.78;64.23
70166;SHT30;57541;47.408;18.822;2023-05-02T02:17:14;14.78;64.34
70166;SHT30;57541;47.408;18.822;2023-05-02T02:18:08;14.75;64.59
70166;SHT30;57541;47.408;18.822;2023-05-02T02:18:43;14.75;64.94
70166;SHT30;57541;47.408;18.822;2023-05-02T02:19:16;14.68;64.86
70166;SHT30;57541;47.408;18.822;2023-05-02T02:19:49;14.63;65.33
70166;SHT30;57541;47.408;18.822;2023-05-02T02:20:28;14.64;64.97
70166;SHT30;57541;47.408;18.822;2023-05-02T02:21:00;14.51;65.40
70166;SHT30;57541;47.408;18.822;2023-05-02T02:21:33;14.51;65.31
70166;SHT30;57541;47.408;18.822;2023-05-02T02:22:06;14.45;65.38
70166;SHT30;57541;47.408;18.822;2023-05-02T02:22:40;14.43;65.33
70166;SHT30;57541;47.408;18.822;2023-05-02T02:23:14;14.43;65.44
70166;SHT30;57541;47.408;18.822;2023-05-02T02:23:48;14.41;65.55
70166;SHT30;57541;47.408;18.822;2023-05-02T02:24:22;14.37;65.65
70166;SHT30;57541;47.408;18.822;2023-05-02T02:24:54;14.40;65.90
70166;SHT30;57541;47.408;18.822;2023-05-02T02:25:28;14.34;66.49
70166;SHT30;57541;47.408;18.822;2023-05-02T02:26:01;14.29;66.53
70166;SHT30;57541;47.408;18.822;2023-05-02T02:26:33;14.30;66.38
70166;SHT30;57541;47.408;18.822;2023-05-02T02:27:06;14.29;66.53
70166;SHT30;57541;47.408;18.822;2023-05-02T02:27:39;14.30;66.49
70166;SHT30;57541;47.408;18.822;2023-05-02T02:28:11;14.27;66.59
70166;SHT30;57541;47.408;18.822;2023-05-02T02:28:43;14.23;66.80
70166;SHT30;57541;47.408;18.822;2023-05-02T02:29:15;14.20;66.80
70166;SHT30;57541;47.408;18.822;2023-05-02T02:29:47;14.20;66.90
70166;SHT30;57541;47.408;18.822;2023-05-02T02:30:18;14.20;66.99
70166;SHT30;57541;47.408;18.822;2023-05-02T02:30:50;14.13;67.38
70166;SHT30;57541;47.408;18.822;2023-05-02T02:31:22;14.20;67.07
70166;SHT30;57541;47.408;18.822;2023-05-02T02:31:56;14.29;67.00
70166;SHT30;57541;47.408;18.822;2023-05-02T02:32:27;14.30;67.02
70166;SHT30;57541;47.408;18.822;2023-05-02T02:32:59;14.29;67.08
70166;SHT30;57541;47.408;18.822;2023-05-02T02:33:31;14.24;67.21
70166;SHT30;57541;47.408;18.822;2023-05-02T02:34:04;14.15;67.39
70166;SHT30;57541;47.408;18.822;2023-05-02T02:34:36;14.16;67.43
70166;SHT30;57541;47.408;18.822;2023-05-02T02:35:08;14.19;67.50
70166;SHT30;57541;47.408;18.822;2023-05-02T02:35:42;14.17;67.53
70166;SHT30;57541;47.408;18.822;2023-05-02T02:36:23;14.17;67.35
70166;SHT30;57541;47.408;18.822;2023-05-02T02:37:04;14.19;67.37
70166;SHT30;57541;47.408;18.822;2023-05-02T02:37:44;14.19;67.27
70166;SHT30;57541;47.408;18.822;2023-05-02T02:38:33;14.27;66.98
70166;SHT30;57541;47.408;18.822;2023-05-02T02:39:47;14.27;66.91
70166;SHT30;57541;47.408;18.822;2023-05-02T02:40:30;14.24;67.34
70166;SHT30;57541;47.408;18.822;2023-05-02T02:41:31;14.17;67.44
70166;SHT30;57541;47.408;18.822;2023-05-02T02:42:24;14.20;67.30
70166;SHT30;57541;47.408;18.822;2023-05-02T02:43:07;14.17;67.39
70166;SHT30;57541;47.408;18.822;2023-05-02T02:44:42;14.16;67.59
70166;SHT30;57541;47.408;18.822;2023-05-02T02:46:15;14.30;67.68
70166;SHT30;57541;47.408;18.822;2023-05-02T02:47:08;14.26;67.70
70166;SHT30;57541;47.408;18.822;2023-05-02T02:48:33;14.27;68.01
70166;SHT30;57541;47.408;18.822;2023-05-02T02:50:13;14.30;67.94
70166;SHT30;57541;47.408;18.822;2023-05-02T02:51:10;14.26;68.13
70166;SHT30;57541;47.408;18.822;2023-05-02T02:51:57;14.26;68.21
70166;SHT30;57541;47.408;18.822;2023-05-02T02:52:42;14.20;68.55
70166;SHT30;57541;47.408;18.822;2023-05-02T02:53:19;14.24;68.71
70166;SHT30;57541;47.408;18.822;2023-05-02T02:54:28;14.29;68.39
70166;SHT30;57541;47.408;18.822;2023-05-02T02:55:19;14.30;68.55
70166;SHT30;57541;47.408;18.822;2023-05-02T02:56:05;14.32;68.46
70166;SHT30;57541;47.408;18.822;2023-05-02T02:56:40;14.27;68.66
70166;SHT30;57541;47.408;18.822;2023-05-02T02:57:16;14.24;68.63
70166;SHT30;57541;47.408;18.822;2023-05-02T02:58:03;14.17;69.03
70166;SHT30;57541;47.408;18.822;2023-05-02T02:58:57;14.09;69.22
70166;SHT30;57541;47.408;18.822;2023-05-02T02:59:33;14.10;69.22
70166;SHT30;57541;47.408;18.822;2023-05-02T03:00:16;14.16;69.02
70166;SHT30;57541;47.408;18.822;2023-05-02T03:00:49;14.17;68.84
70166;SHT30;57541;47.408;18.822;2023-05-02T03:01:21;14.24;68.83
70166;SHT30;57541;47.408;18.822;2023-05-02T03:02:16;14.19;68.80
70166;SHT30;57541;47.408;18.822;2023-05-02T03:02:48;14.24;68.83
70166;SHT30;57541;47.408;18.822;2023-05-02T03:03:21;14.27;68.88
70166;SHT30;57541;47.408;18.822;2023-05-02T03:04:00;14.33;68.80
70166;SHT30;57541;47.408;18.822;2023-05-02T03:04:37;14.30;68.85
70166;SHT30;57541;47.408;18.822;2023-05-02T03:05:09;14.30;68.63
70166;SHT30;57541;47.408;18.822;2023-05-02T03:05:42;14.30;68.72
70166;SHT30;57541;47.408;18.822;2023-05-02T03:06:16;14.27;68.78
70166;SHT30;57541;47.408;18.822;2023-05-02T03:06:48;14.23;68.83
70166;SHT30;57541;47.408;18.822;2023-05-02T03:07:20;14.23;68.74
70166;SHT30;57541;47.408;18.822;2023-05-02T03:07:52;14.26;68.77
70166;SHT30;57541;47.408;18.822;2023-05-02T03:08:23;14.22;68.80
70166;SHT30;57541;47.408;18.822;2023-05-02T03:08:55;14.19;68.96
70166;SHT30;57541;47.408;18.822;2023-05-02T03:09:27;14.27;68.96
70166;SHT30;57541;47.408;18.822;2023-05-02T03:10:04;14.27;69.02
70166;SHT30;57541;47.408;18.822;2023-05-02T03:10:36;14.27;68.96
70166;SHT30;57541;47.408;18.822;2023-05-02T03:11:08;14.26;69.04
70166;SHT30;57541;47.408;18.822;2023-05-02T03:11:40;14.24;69.05
70166;SHT30;57541;47.408;18.822;2023-05-02T03:12:12;14.23;69.07
70166;SHT30;57541;47.408;18.822;2023-05-02T03:12:44;14.27;69.22
70166;SHT30;57541;47.408;18.822;2023-05-02T03:13:16;14.26;69.26
70166;SHT30;57541;47.408;18.822;2023-05-02T03:13:47;14.26;69.34
70166;SHT30;57541;47.408;18.822;2023-05-02T03:14:19;14.32;69.29
70166;SHT30;57541;47.408;18.822;2023-05-02T03:14:51;14.32;69.31
70166;SHT30;57541;47.408;18.822;2023-05-02T03:16:54;14.32;69.34
70166;SHT30;57541;47.408;18.822;2023-05-02T03:17:26;14.32;69.49
70166;SHT30;57541;47.408;18.822;2023-05-02T03:17:58;14.33;69.47
70166;SHT30;57541;47.408;18.822;2023-05-02T03:18:30;14.30;69.49
70166;SHT30;57541;47.408;18.822;2023-05-02T03:19:02;14.29;69.59
70166;SHT30;57541;47.408;18.822;2023-05-02T03:19:34;14.32;69.70
70166;SHT30;57541;47.408;18.822;2023-05-02T03:20:06;14.32;69.73
70166;SHT30;57541;47.408;18.822;2023-05-02T03:20:38;14.30;69.77
70166;SHT30;57541;47.408;18.822;2023-05-02T03:21:10;14.33;69.80
70166;SHT30;57541;47.408;18.822;2023-05-02T03:21:41;14.32;69.79
70166;SHT30;57541;47.408;18.822;2023-05-02T03:22:13;14.26;69.75
70166;SHT30;57541;47.408;18.822;2023-05-02T03:22:45;14.30;69.71
70166;SHT30;57541;47.408;18.822;2023-05-02T03:23:17;14.29;69.83
70166;SHT30;57541;47.408;18.822;2023-05-02T03:23:48;14.26;70.19
70166;SHT30;57541;47.408;18.822;2023-05-02T03:24:20;14.24;70.21
70166;SHT30;57541;47.408;18.822;2023-05-02T03:24:52;14.23;70.04
70166;SHT30;57541;47.408;18.822;2023-05-02T03:25:23;14.24;70.43
70166;SHT30;57541;47.408;18.822;2023-05-02T03:25:55;14.24;70.15
70166;SHT30;57541;47.408;18.822;2023-05-02T03:26:27;14.23;70.04
70166;SHT30;57541;47.408;18.822;2023-05-02T03:26:59;14.23;70.24
70166;SHT30;57541;47.408;18.822;2023-05-02T03:27:30;14.27;70.08
70166;SHT30;57541;47.408;18.822;2023-05-02T03:28:02;14.23;70.05
70166;SHT30;57541;47.408;18.822;2023-05-02T03:28:34;14.24;70.03
70166;SHT30;57541;47.408;18.822;2023-05-02T03:29:05;14.30;70.06
70166;SHT30;57541;47.408;18.822;2023-05-02T03:29:37;14.29;70.05
70166;SHT30;57541;47.408;18.822;2023-05-02T03:30:09;14.26;70.09
70166;SHT30;57541;47.408;18.822;2023-05-02T03:30:41;14.23;70.20
70166;SHT30;57541;47.408;18.822;2023-05-02T03:31:12;14.17;70.43
70166;SHT30;57541;47.408;18.822;2023-05-02T03:31:47;14.17;70.76
70166;SHT30;57541;47.408;18.822;2023-05-02T03:32:19;14.12;70.81
70166;SHT30;57541;47.408;18.822;2023-05-02T03:32:50;14.08;70.97
70166;SHT30;57541;47.408;18.822;2023-05-02T03:33:22;14.05;71.17
70166;SHT30;57541;47.408;18.822;2023-05-02T03:33:54;14.09;70.81
70166;SHT30;57541;47.408;18.822;2023-05-02T03:34:26;14.06;70.96
70166;SHT30;57541;47.408;18.822;2023-05-02T03:34:58;14.01;71.48
70166;SHT30;57541;47.408;18.822;2023-05-02T03:35:30;14.09;70.81
70166;SHT30;57541;47.408;18.822;2023-05-02T03:36:02;14.03;70.89
70166;SHT30;57541;47.408;18.822;2023-05-02T03:36:33;14.03;71.26
70166;SHT30;57541;47.408;18.822;2023-05-02T03:37:05;14.03;71.06
70166;SHT30;57541;47.408;18.822;2023-05-02T03:37:37;14.03;71.17
70166;SHT30;57541;47.408;18.822;2023-05-02T03:38:09;14.01;71.55
70166;SHT30;57541;47.408;18.822;2023-05-02T03:38:40;14.03;71.56
70166;SHT30;57541;47.408;18.822;2023-05-02T03:39:12;14.09;71.09
70166;SHT30;57541;47.408;18.822;2023-05-02T03:39:44;14.06;71.29
70166;SHT30;57541;47.408;18.822;2023-05-02T03:40:16;14.08;71.26
70166;SHT30;57541;47.408;18.822;2023-05-02T03:40:52;14.06;71.09
70166;SHT30;57541;47.408;18.822;2023-05-02T03:41:27;14.01;71.32
70166;SHT30;57541;47.408;18.822;2023-05-02T03:41:58;14.02;71.24
70166;SHT30;57541;47.408;18.822;2023-05-02T03:42:30;14.05;71.08
70166;SHT30;57541;47.408;18.822;2023-05-02T03:43:02;14.09;71.06
70166;SHT30;57541;47.408;18.822;2023-05-02T03:43:34;14.06;71.19
70166;SHT30;57541;47.408;18.822;2023-05-02T03:44:05;14.03;71.52
70166;SHT30;57541;47.408;18.822;2023-05-02T03:44:37;14.02;71.72
70166;SHT30;57541;47.408;18.822;2023-05-02T03:45:09;14.03;71.66
70166;SHT30;57541;47.408;18.822;2023-05-02T03:45:41;14.08;71.32
70166;SHT30;57541;47.408;18.822;2023-05-02T03:46:12;14.06;71.20
70166;SHT30;57541;47.408;18.822;2023-05-02T03:46:44;14.05;71.35
70166;SHT30;57541;47.408;18.822;2023-05-02T03:47:16;14.01;71.83
70166;SHT30;57541;47.408;18.822;2023-05-02T03:47:48;14.01;71.58
70166;SHT30;57541;47.408;18.822;2023-05-02T03:48:19;14.01;71.64
70166;SHT30;57541;47.408;18.822;2023-05-02T03:48:51;14.02;71.72
70166;SHT30;57541;47.408;18.822;2023-05-02T03:49:23;14.13;71.00
70166;SHT30;57541;47.408;18.822;2023-05-02T03:49:55;14.19;70.87